Terminal Aerodrome Forecast
Issued by NWS

Current Version | Previous Version | Text Only | Print | Product List | Glossary On
Versions: 1 2 3 4 5 6 7 8 9 10 11 12 13 14 15 16 17 18 19 20 21 22 23 24 25 26 27 28 29 30 31 32 33 34 35 36 37 38 39 40 41 42 43 44 45 46 47 48 49 50
000
FTUS43 KLOT 041555 AAD
TAFGYY
TAF AMD
KGYY 041555Z 0416/0512 VRB03KT P6SM FEW008 SCT050
      TEMPO 0416/0420 BKN008
     FM042100 04009KT P6SM VCTS BKN040CB
     FM050000 04007KT P6SM SCT250
     FM050300 08004KT P6SM SCT250
     FM050500 VRB03KT P6SM SCT250=

USA.gov is the U.S. government's official web portal to all federal, state and local government web resources and services.